Axtel, Kentucky
Current Conditions -  °F | °C
As of 6:28 PM on Friday 28 Nov 2014 (Local Time) from KFTK Reporting Station
Broken Clouds Broken Clouds  
Wind Chill: 29°   Ceiling: 20000
Heat Index: 36°   Visibility: 10mi
Dew Point: 21°   Wind: 9mph
Humidity: 56%   Direction: 140°SE
Pressure: 30.11"   Gusts: NA
Location:  37.7834°N, 86.4612°W
Report Text: KFTK 290028Z AUTO 14008KT 10SM BKN200 02/M06 A3011 RMK AO2
Loading
Personal Weather Stations






























Interactive Weather Map New forecast layout! Learn more

10-Day Weather Forecast

Advertisements
Track Severe Weather on mobile